Time;durP1;ratioP1;P1;durP2;ratioP2;P2;SDS_P1;SDS_P2;PMS_P1;PMS_P2;Temp;Humidity;BMP_temperature;BMP_pressure;BME280_temperature;BME280_humidity;BME280_pressure;Samples;Min_cycle;Max_cycle;Signal;HPM_P1;HPM_P2
2022/03/26 00:00:54;;;;;;;63.38;26.83;;;;;;;;;;5105378;28;20058;-57
2022/03/26 00:03:20;;;;;;;62.08;28.45;;;;;;;;;;5122398;27;20027;-57
2022/03/26 00:05:46;;;;;;;60.42;27.67;;;;;;;;;;5126281;27;20094;-53
2022/03/26 00:08:13;;;;;;;62.05;28.77;;;;;;;;;;5126552;27;20043;-58
2022/03/26 00:10:40;;;;;;;63.95;28.58;;;;;;;;;;5127092;27;20068;-58
2022/03/26 00:13:06;;;;;;;60.13;28.38;;;;;;;;;;5125952;27;20024;-57
2022/03/26 00:15:32;;;;;;;60.42;27.92;;;;;;;;;;5125086;27;20043;-56
2022/03/26 00:17:58;;;;;;;68.85;29.10;;;;;;;;;;5126783;27;20030;-58
2022/03/26 00:20:26;;;;;;;56.67;28.15;;;;;;;;;;5125497;27;20030;-58
2022/03/26 00:22:52;;;;;;;51.70;27.98;;;;;;;;;;5124948;27;20043;-56
2022/03/26 00:25:19;;;;;;;61.33;28.70;;;;;;;;;;5126318;27;20023;-58
2022/03/26 00:27:45;;;;;;;64.68;29.23;;;;;;;;;;5125186;27;20041;-57
2022/03/26 00:30:11;;;;;;;66.45;28.98;;;;;;;;;;5124823;27;20031;-54
2022/03/26 00:32:37;;;;;;;59.97;28.73;;;;;;;;;;5125149;27;20429;-55
2022/03/26 00:35:04;;;;;;;61.38;27.33;;;;;;;;;;5124884;27;20011;-53
2022/03/26 00:37:30;;;;;;;54.83;28.25;;;;;;;;;;5124891;27;20072;-46
2022/03/26 00:39:57;;;;;;;54.22;28.88;;;;;;;;;;5126165;27;20026;-52
2022/03/26 00:42:23;;;;;;;67.95;29.65;;;;;;;;;;5124547;27;20058;-55
2022/03/26 00:44:49;;;;;;;66.63;29.75;;;;;;;;;;5125044;27;20058;-47
2022/03/26 00:47:15;;;;;;;71.72;31.58;;;;;;;;;;5125992;27;20028;-45
2022/03/26 00:49:41;;;;;;;72.75;32.78;;;;;;;;;;5124106;27;20078;-45
2022/03/26 00:52:08;;;;;;;67.03;29.83;;;;;;;;;;5124984;27;20016;-54
2022/03/26 00:54:34;;;;;;;61.35;28.65;;;;;;;;;;5126011;27;20039;-49
2022/03/26 00:57:02;;;;;;;61.65;28.25;;;;;;;;;;5123904;27;20474;-53
2022/03/26 00:59:29;;;;;;;54.55;28.25;;;;;;;;;;5124810;27;20238;-46
2022/03/26 01:01:55;;;;;;;52.42;26.85;;;;;;;;;;5125938;27;20442;-47
2022/03/26 01:04:21;;;;;;;55.55;27.95;;;;;;;;;;5124151;27;20387;-44
2022/03/26 01:06:47;;;;;;;59.83;28.55;;;;;;;;;;5124758;27;20022;-54
2022/03/26 01:09:13;;;;;;;61.65;28.63;;;;;;;;;;5125762;27;20024;-55
2022/03/26 01:11:39;;;;;;;58.20;28.13;;;;;;;;;;5120988;27;20019;-46
2022/03/26 01:14:05;;;;;;;55.17;28.13;;;;;;;;;;5124988;27;20459;-55
2022/03/26 01:16:32;;;;;;;61.03;30.63;;;;;;;;;;5125319;27;20023;-43
2022/03/26 01:19:01;;;;;;;58.58;29.35;;;;;;;;;;5123542;27;20023;-52
2022/03/26 01:21:31;;;;;;;65.45;31.10;;;;;;;;;;5124722;27;20039;-51
2022/03/26 01:23:57;;;;;;;66.88;30.13;;;;;;;;;;5125098;27;20398;-46
2022/03/26 01:26:23;;;;;;;58.72;30.98;;;;;;;;;;5123432;27;20068;-46
2022/03/26 01:28:49;;;;;;;63.80;30.08;;;;;;;;;;5123207;27;20039;-44
2022/03/26 01:31:19;;;;;;;60.60;28.33;;;;;;;;;;5124934;27;20106;-52
2022/03/26 01:33:46;;;;;;;64.57;31.70;;;;;;;;;;5123566;27;20035;-53
2022/03/26 01:36:13;;;;;;;71.25;34.03;;;;;;;;;;5123227;27;20108;-46
2022/03/26 01:38:39;;;;;;;87.68;38.00;;;;;;;;;;5124739;27;20022;-56
2022/03/26 01:41:05;;;;;;;87.35;38.40;;;;;;;;;;5123513;27;20057;-53
2022/03/26 01:43:31;;;;;;;85.93;38.60;;;;;;;;;;5123162;27;20035;-55
2022/03/26 01:46:01;;;;;;;91.05;41.13;;;;;;;;;;5124939;27;20019;-55
2022/03/26 01:48:28;;;;;;;97.50;44.03;;;;;;;;;;5124086;27;20040;-56
2022/03/26 01:50:54;;;;;;;94.68;43.47;;;;;;;;;;5123382;27;20023;-55
2022/03/26 01:53:20;;;;;;;96.95;43.90;;;;;;;;;;5125105;27;20019;-54
2022/03/26 01:55:46;;;;;;;87.00;38.38;;;;;;;;;;5123706;27;20019;-55
2022/03/26 01:58:13;;;;;;;83.75;39.53;;;;;;;;;;5123035;27;20027;-55
2022/03/26 02:00:39;;;;;;;64.07;29.15;;;;;;;;;;5125068;27;20408;-50
2022/03/26 02:03:08;;;;;;;67.07;31.33;;;;;;;;;;5123870;27;20030;-53
2022/03/26 02:05:35;;;;;;;80.13;36.58;;;;;;;;;;5122344;27;20051;-54
2022/03/26 02:08:03;;;;;;;69.88;31.63;;;;;;;;;;5124534;27;20030;-55
2022/03/26 02:10:29;;;;;;;70.63;32.22;;;;;;;;;;5105339;27;20066;-55
2022/03/26 02:12:56;;;;;;;70.78;33.22;;;;;;;;;;5122426;27;20467;-54
2022/03/26 02:15:22;;;;;;;72.93;32.97;;;;;;;;;;5124139;27;20044;-45
2022/03/26 02:17:48;;;;;;;75.88;34.30;;;;;;;;;;5123744;27;20027;-45
2022/03/26 02:20:15;;;;;;;71.25;31.80;;;;;;;;;;5121967;27;20102;-52
2022/03/26 02:22:45;;;;;;;71.32;33.25;;;;;;;;;;5112804;28;20506;-51
2022/03/26 02:25:12;;;;;;;66.53;30.83;;;;;;;;;;5114369;28;20032;-49
2022/03/26 02:27:38;;;;;;;70.45;30.73;;;;;;;;;;5114118;28;20110;-44
2022/03/26 02:30:05;;;;;;;79.85;33.85;;;;;;;;;;5112941;28;20019;-44
2022/03/26 02:32:31;;;;;;;164.02;84.57;;;;;;;;;;5114245;28;20028;-52
2022/03/26 02:34:57;;;;;;;166.35;85.15;;;;;;;;;;5114175;28;20034;-53
2022/03/26 02:37:24;;;;;;;120.00;60.80;;;;;;;;;;5114195;28;20420;-54
2022/03/26 02:39:50;;;;;;;81.80;38.65;;;;;;;;;;5113606;28;20030;-54
2022/03/26 02:42:16;;;;;;;70.70;36.47;;;;;;;;;;5114245;28;20459;-53
2022/03/26 02:44:42;;;;;;;79.07;46.95;;;;;;;;;;5113958;28;20034;-45
2022/03/26 02:47:10;;;;;;;50.25;27.42;;;;;;;;;;5113867;28;20027;-53
2022/03/26 02:49:37;;;;;;;56.22;24.95;;;;;;;;;;5113862;28;20055;-51
2022/03/26 02:52:03;;;;;;;43.03;21.83;;;;;;;;;;5113829;28;20459;-55
2022/03/26 02:54:29;;;;;;;40.20;19.42;;;;;;;;;;5113297;28;20031;-56
2022/03/26 02:56:55;;;;;;;34.65;17.58;;;;;;;;;;5096153;28;20511;-52
2022/03/26 02:59:21;;;;;;;40.53;17.05;;;;;;;;;;5113888;28;20026;-54
2022/03/26 03:01:48;;;;;;;34.60;17.33;;;;;;;;;;5114026;28;20020;-53
2022/03/26 03:04:14;;;;;;;38.15;17.17;;;;;;;;;;5113917;28;20070;-54
2022/03/26 03:06:40;;;;;;;33.92;15.07;;;;;;;;;;5113854;28;20027;-52
2022/03/26 03:09:07;;;;;;;33.20;16.75;;;;;;;;;;5113712;28;20034;-54
2022/03/26 03:11:34;;;;;;;32.20;16.58;;;;;;;;;;5113684;28;20072;-53
2022/03/26 03:14:00;;;;;;;28.00;14.88;;;;;;;;;;5113774;28;20035;-49
2022/03/26 03:16:26;;;;;;;30.48;14.65;;;;;;;;;;5113948;28;20028;-50
2022/03/26 03:18:53;;;;;;;33.10;16.05;;;;;;;;;;5113709;28;20157;-52
2022/03/26 03:21:19;;;;;;;33.53;16.60;;;;;;;;;;5113589;28;20020;-53
2022/03/26 03:23:45;;;;;;;35.53;18.80;;;;;;;;;;5113895;28;20027;-51
2022/03/26 03:26:11;;;;;;;36.97;18.80;;;;;;;;;;5113524;28;20023;-52
2022/03/26 03:28:38;;;;;;;35.42;18.05;;;;;;;;;;5113437;28;20039;-53
2022/03/26 03:31:04;;;;;;;44.00;19.05;;;;;;;;;;5113588;28;20031;-53
2022/03/26 03:33:30;;;;;;;46.47;21.95;;;;;;;;;;5113693;28;20027;-50
2022/03/26 03:35:56;;;;;;;42.95;21.35;;;;;;;;;;5113742;28;20024;-53
2022/03/26 03:38:22;;;;;;;47.90;21.90;;;;;;;;;;5113523;28;20471;-49
2022/03/26 03:40:48;;;;;;;51.10;21.42;;;;;;;;;;5113522;28;20507;-51
2022/03/26 03:43:15;;;;;;;47.38;23.15;;;;;;;;;;5113514;28;20028;-57
2022/03/26 03:45:41;;;;;;;52.08;22.83;;;;;;;;;;5113698;28;20047;-53
2022/03/26 03:48:07;;;;;;;49.22;24.52;;;;;;;;;;5113123;28;20440;-52
2022/03/26 03:50:33;;;;;;;49.08;22.65;;;;;;;;;;5113513;28;20036;-51
2022/03/26 03:52:59;;;;;;;48.47;24.50;;;;;;;;;;5113377;28;20054;-53
2022/03/26 03:55:25;;;;;;;56.05;25.77;;;;;;;;;;5113446;28;20030;-50
2022/03/26 03:57:51;;;;;;;73.15;30.55;;;;;;;;;;5113553;28;20024;-49
2022/03/26 04:00:17;;;;;;;61.47;29.35;;;;;;;;;;5113377;28;20024;-54
2022/03/26 04:02:44;;;;;;;64.35;30.02;;;;;;;;;;5113375;28;20502;-52
2022/03/26 04:05:10;;;;;;;69.85;31.25;;;;;;;;;;5113351;28;20470;-55
2022/03/26 04:07:39;;;;;;;79.85;33.50;;;;;;;;;;5117078;28;20471;-47
2022/03/26 04:10:07;;;;;;;90.95;38.30;;;;;;;;;;5117373;28;20110;-50
2022/03/26 04:12:36;;;;;;;89.30;39.90;;;;;;;;;;5117077;28;20027;-51
2022/03/26 04:15:03;;;;;;;96.80;43.08;;;;;;;;;;5117088;28;20035;-51
2022/03/26 04:17:30;;;;;;;108.20;45.78;;;;;;;;;;5116873;28;20058;-45
2022/03/26 04:19:56;;;;;;;104.05;43.80;;;;;;;;;;5117099;28;20035;-46
2022/03/26 04:22:22;;;;;;;94.80;40.45;;;;;;;;;;5116881;28;20024;-52
2022/03/26 04:24:48;;;;;;;56.35;27.02;;;;;;;;;;5116882;28;20031;-47
2022/03/26 04:27:14;;;;;;;70.22;29.23;;;;;;;;;;5116987;28;20108;-52
2022/03/26 04:29:40;;;;;;;59.60;26.85;;;;;;;;;;5116708;28;20031;-57
2022/03/26 04:32:07;;;;;;;57.40;23.58;;;;;;;;;;5116740;28;20016;-42
2022/03/26 04:34:33;;;;;;;64.72;28.17;;;;;;;;;;5116891;28;20031;-53
2022/03/26 04:36:59;;;;;;;56.80;26.08;;;;;;;;;;5116521;28;20510;-51
2022/03/26 04:39:25;;;;;;;56.42;25.98;;;;;;;;;;5116770;28;20028;-46
2022/03/26 04:41:51;;;;;;;58.75;24.95;;;;;;;;;;5116721;28;20020;-50
2022/03/26 04:44:17;;;;;;;61.70;25.92;;;;;;;;;;5116352;28;20648;-50
2022/03/26 04:46:44;;;;;;;53.65;24.67;;;;;;;;;;5116337;28;20027;-50
2022/03/26 04:49:10;;;;;;;57.15;25.70;;;;;;;;;;5116155;28;20043;-53
2022/03/26 04:51:36;;;;;;;74.35;30.30;;;;;;;;;;5116297;28;20481;-45
2022/03/26 04:54:02;;;;;;;79.03;32.53;;;;;;;;;;5116310;28;20096;-47
2022/03/26 04:56:28;;;;;;;70.82;32.13;;;;;;;;;;5116343;28;20072;-48
2022/03/26 04:58:55;;;;;;;70.88;33.25;;;;;;;;;;5116083;28;20123;-50
2022/03/26 05:01:22;;;;;;;76.18;34.30;;;;;;;;;;5116026;28;20024;-53
2022/03/26 05:03:49;;;;;;;75.78;35.47;;;;;;;;;;5116236;28;20446;-51
2022/03/26 05:06:15;;;;;;;75.97;35.72;;;;;;;;;;5115966;28;20027;-53
2022/03/26 05:08:41;;;;;;;74.50;35.63;;;;;;;;;;5115942;28;20070;-49
2022/03/26 05:11:07;;;;;;;74.75;34.58;;;;;;;;;;5097322;28;20039;-50
2022/03/26 05:13:33;;;;;;;71.60;34.17;;;;;;;;;;5115974;28;20020;-53
2022/03/26 05:15:59;;;;;;;68.82;31.45;;;;;;;;;;5115648;28;20379;-46
2022/03/26 05:18:26;;;;;;;64.88;29.55;;;;;;;;;;5115052;28;20118;-46
2022/03/26 05:20:55;;;;;;;60.08;28.85;;;;;;;;;;5115901;28;20482;-44
2022/03/26 05:23:22;;;;;;;57.53;29.23;;;;;;;;;;5115661;28;20410;-46
2022/03/26 05:25:48;;;;;;;54.88;25.92;;;;;;;;;;5115558;28;20042;-53
2022/03/26 05:28:14;;;;;;;62.83;27.90;;;;;;;;;;5115558;28;20036;-44
2022/03/26 05:30:40;;;;;;;65.82;28.15;;;;;;;;;;5115451;28;20027;-46
2022/03/26 05:33:06;;;;;;;79.57;35.88;;;;;;;;;;5115555;28;20046;-45
2022/03/26 05:35:32;;;;;;;90.25;40.90;;;;;;;;;;5115776;28;20080;-45
2022/03/26 05:37:58;;;;;;;91.85;44.60;;;;;;;;;;5115544;28;20098;-49
2022/03/26 05:40:24;;;;;;;94.63;45.90;;;;;;;;;;5115509;28;20467;-48
2022/03/26 05:42:53;;;;;;;88.57;43.83;;;;;;;;;;5115590;28;20448;-44
2022/03/26 05:45:20;;;;;;;87.45;40.15;;;;;;;;;;5096923;28;20403;-49
2022/03/26 05:47:48;;;;;;;69.40;34.60;;;;;;;;;;5115021;28;20038;-51
2022/03/26 05:50:14;;;;;;;59.88;29.88;;;;;;;;;;5114951;28;20131;-51
2022/03/26 05:52:43;;;;;;;56.53;29.63;;;;;;;;;;5115129;28;20030;-48
2022/03/26 05:55:10;;;;;;;56.00;30.95;;;;;;;;;;5115028;28;20038;-50
2022/03/26 05:57:36;;;;;;;57.65;30.40;;;;;;;;;;5114970;28;20103;-46
2022/03/26 06:00:03;;;;;;;63.75;32.38;;;;;;;;;;5114831;28;20032;-50
2022/03/26 06:02:29;;;;;;;56.03;32.35;;;;;;;;;;5096533;28;20507;-50
2022/03/26 06:04:55;;;;;;;55.83;31.10;;;;;;;;;;5114857;28;20027;-46
2022/03/26 06:07:22;;;;;;;57.03;32.42;;;;;;;;;;5114779;28;20024;-50
2022/03/26 06:09:48;;;;;;;54.47;31.95;;;;;;;;;;5114770;28;20114;-49
2022/03/26 06:12:14;;;;;;;61.67;32.92;;;;;;;;;;5115065;28;20027;-49
2022/03/26 06:14:40;;;;;;;74.40;38.92;;;;;;;;;;5114500;28;20475;-48
2022/03/26 06:17:06;;;;;;;67.20;36.40;;;;;;;;;;5114575;28;20050;-46
2022/03/26 06:19:32;;;;;;;56.75;31.65;;;;;;;;;;5114705;28;20019;-48
2022/03/26 06:21:58;;;;;;;48.35;26.73;;;;;;;;;;5114606;28;20491;-47
2022/03/26 06:24:26;;;;;;;41.75;26.10;;;;;;;;;;5114535;28;20023;-50
2022/03/26 06:26:52;;;;;;;42.70;25.10;;;;;;;;;;5114388;28;20030;-52
2022/03/26 06:29:19;;;;;;;49.17;26.95;;;;;;;;;;5113834;28;21083;-46
2022/03/26 06:31:46;;;;;;;45.33;26.80;;;;;;;;;;5114041;28;20027;-45
2022/03/26 06:34:12;;;;;;;61.15;31.27;;;;;;;;;;5114461;28;20107;-49
2022/03/26 06:36:39;;;;;;;69.53;37.85;;;;;;;;;;5114031;28;20027;-48
2022/03/26 06:39:09;;;;;;;75.75;42.92;;;;;;;;;;5114358;28;20028;-50
2022/03/26 06:41:38;;;;;;;65.97;38.30;;;;;;;;;;5113938;28;20030;-54
2022/03/26 06:44:06;;;;;;;52.95;28.20;;;;;;;;;;5114342;28;20431;-54
2022/03/26 06:46:32;;;;;;;60.22;32.90;;;;;;;;;;5113934;28;20028;-54
2022/03/26 06:48:58;;;;;;;57.97;29.83;;;;;;;;;;5113777;28;20052;-55
2022/03/26 06:51:24;;;;;;;55.88;31.88;;;;;;;;;;5114180;28;20028;-55
2022/03/26 06:53:50;;;;;;;64.82;31.30;;;;;;;;;;5113942;28;20498;-56
2022/03/26 06:56:16;;;;;;;51.13;27.35;;;;;;;;;;5114009;28;20368;-56
2022/03/26 06:58:44;;;;;;;47.63;27.05;;;;;;;;;;5114091;28;20024;-55
2022/03/26 07:01:10;;;;;;;47.63;27.15;;;;;;;;;;5113757;28;20027;-54
2022/03/26 07:03:39;;;;;;;53.13;27.92;;;;;;;;;;5114021;28;20506;-63
2022/03/26 07:06:05;;;;;;;51.13;25.63;;;;;;;;;;5113923;28;20027;-64
2022/03/26 07:08:31;;;;;;;46.33;26.00;;;;;;;;;;5113707;28;20050;-57
2022/03/26 07:10:59;;;;;;;42.63;24.98;;;;;;;;;;5113698;28;20019;-56
2022/03/26 07:13:27;;;;;;;38.85;21.52;;;;;;;;;;5114043;28;20032;-57
2022/03/26 07:15:53;;;;;;;39.58;21.10;;;;;;;;;;5113791;28;20026;-57
2022/03/26 07:18:20;;;;;;;34.72;21.42;;;;;;;;;;5113627;28;20201;-56
2022/03/26 07:20:46;;;;;;;30.52;18.88;;;;;;;;;;5113746;28;20027;-58
2022/03/26 07:23:12;;;;;;;39.80;20.13;;;;;;;;;;5113634;28;20028;-57
2022/03/26 07:25:38;;;;;;;37.55;20.77;;;;;;;;;;5113660;28;20099;-57
2022/03/26 07:28:05;;;;;;;45.70;19.88;;;;;;;;;;5113499;28;20024;-57
2022/03/26 07:30:31;;;;;;;42.55;21.38;;;;;;;;;;5113498;28;20081;-57
2022/03/26 07:32:57;;;;;;;35.17;19.70;;;;;;;;;;5113707;28;20027;-58
2022/03/26 07:35:23;;;;;;;32.22;19.48;;;;;;;;;;5113528;28;20417;-58
2022/03/26 07:37:49;;;;;;;33.22;19.55;;;;;;;;;;5113460;28;20016;-57
2022/03/26 07:40:15;;;;;;;42.70;20.27;;;;;;;;;;5113429;28;20030;-57
2022/03/26 07:42:42;;;;;;;37.22;21.95;;;;;;;;;;5117248;28;20020;-57
2022/03/26 07:45:08;;;;;;;29.40;17.75;;;;;;;;;;5117503;28;20031;-58
2022/03/26 07:47:38;;;;;;;38.83;19.05;;;;;;;;;;5117433;28;20051;-56
2022/03/26 07:50:05;;;;;;;28.05;17.33;;;;;;;;;;5117216;28;20180;-57
2022/03/26 07:52:31;;;;;;;28.42;17.25;;;;;;;;;;5117358;28;20020;-54
2022/03/26 07:54:57;;;;;;;25.75;16.30;;;;;;;;;;5123850;27;20015;-56
2022/03/26 07:57:23;;;;;;;26.60;15.07;;;;;;;;;;5125217;27;20467;-58
2022/03/26 07:59:49;;;;;;;22.08;14.48;;;;;;;;;;5125250;27;20031;-58
2022/03/26 08:02:15;;;;;;;24.02;13.88;;;;;;;;;;5126593;27;20019;-58
2022/03/26 08:04:42;;;;;;;24.80;13.98;;;;;;;;;;5125021;27;20113;-58
2022/03/26 08:07:08;;;;;;;28.80;15.07;;;;;;;;;;5117930;27;20026;-59
2022/03/26 08:09:34;;;;;;;24.83;14.10;;;;;;;;;;5115766;28;20030;-58
2022/03/26 08:12:00;;;;;;;23.08;13.82;;;;;;;;;;5115674;28;20020;-56
2022/03/26 08:14:28;;;;;;;25.42;12.63;;;;;;;;;;5115739;28;20565;-57
2022/03/26 08:16:54;;;;;;;31.70;17.67;;;;;;;;;;5115477;28;20036;-55
2022/03/26 08:19:20;;;;;;;23.40;12.40;;;;;;;;;;5115393;28;20034;-53
2022/03/26 08:21:46;;;;;;;18.88;11.35;;;;;;;;;;5115853;28;20038;-50
2022/03/26 08:24:12;;;;;;;22.17;12.50;;;;;;;;;;5115482;28;20072;-52
2022/03/26 08:26:39;;;;;;;20.20;13.68;;;;;;;;;;5115460;28;20019;-51
2022/03/26 08:29:05;;;;;;;20.58;10.75;;;;;;;;;;5114951;28;20031;-53
2022/03/26 08:31:31;;;;;;;16.75;9.68;;;;;;;;;;5114337;28;20108;-52
2022/03/26 08:33:59;;;;;;;16.50;8.82;;;;;;;;;;5114399;28;20024;-51
2022/03/26 08:36:26;;;;;;;23.13;9.00;;;;;;;;;;5114623;28;20070;-51
2022/03/26 08:38:52;;;;;;;20.27;8.85;;;;;;;;;;5114426;28;20020;-51
2022/03/26 08:41:20;;;;;;;16.52;9.40;;;;;;;;;;5114206;28;20015;-53
2022/03/26 08:43:46;;;;;;;19.15;10.15;;;;;;;;;;5114582;28;20395;-55
2022/03/26 08:46:12;;;;;;;19.50;9.75;;;;;;;;;;5104528;28;20584;-54
2022/03/26 08:48:38;;;;;;;15.95;9.70;;;;;;;;;;5090965;28;20539;-52
2022/03/26 08:51:05;;;;;;;15.98;9.10;;;;;;;;;;5094030;27;20046;-58
2022/03/26 08:53:31;;;;;;;19.17;8.98;;;;;;;;;;5087836;28;20666;-51
2022/03/26 08:55:59;;;;;;;12.23;8.02;;;;;;;;;;5091049;28;20494;-50
2022/03/26 08:58:25;;;;;;;13.95;7.95;;;;;;;;;;5091542;28;20050;-53
2022/03/26 09:00:53;;;;;;;14.90;8.27;;;;;;;;;;5092435;28;20111;-49
2022/03/26 09:03:21;;;;;;;29.73;14.20;;;;;;;;;;5091239;28;20041;-54
2022/03/26 09:05:50;;;;;;;40.20;19.70;;;;;;;;;;5091081;28;20016;-53
2022/03/26 09:08:17;;;;;;;79.53;35.83;;;;;;;;;;5089255;28;20032;-49
2022/03/26 09:10:43;;;;;;;40.70;20.05;;;;;;;;;;5092387;28;20338;-49
2022/03/26 09:13:10;;;;;;;51.67;29.02;;;;;;;;;;5091929;27;20115;-48
2022/03/26 09:15:36;;;;;;;18.63;9.30;;;;;;;;;;5090600;28;20038;-52
2022/03/26 09:18:02;;;;;;;23.60;14.55;;;;;;;;;;5090027;28;20363;-49
2022/03/26 09:20:29;;;;;;;46.72;27.15;;;;;;;;;;5096955;27;20039;-50
2022/03/26 09:22:55;;;;;;;63.25;35.10;;;;;;;;;;5113754;28;20417;-51
2022/03/26 09:25:21;;;;;;;48.83;28.10;;;;;;;;;;5110750;28;20486;-51
2022/03/26 09:27:48;;;;;;;25.15;16.17;;;;;;;;;;5113645;28;20064;-47
2022/03/26 09:30:15;;;;;;;10.65;5.47;;;;;;;;;;5113635;28;20098;-59
2022/03/26 09:32:41;;;;;;;19.15;8.85;;;;;;;;;;5110445;28;20080;-50
2022/03/26 09:35:08;;;;;;;9.43;5.28;;;;;;;;;;5113343;28;20042;-54
2022/03/26 09:37:34;;;;;;;8.80;5.13;;;;;;;;;;5112285;28;20031;-53
2022/03/26 09:40:02;;;;;;;12.25;5.32;;;;;;;;;;5085789;28;20085;-54
2022/03/26 09:42:29;;;;;;;9.77;4.93;;;;;;;;;;5083968;28;20026;-60
2022/03/26 09:44:56;;;;;;;11.02;5.75;;;;;;;;;;5087870;28;20036;-56
2022/03/26 09:47:22;;;;;;;8.52;4.93;;;;;;;;;;5089941;28;20027;-56
2022/03/26 09:49:48;;;;;;;11.93;5.00;;;;;;;;;;5089465;27;20059;-56
2022/03/26 09:52:16;;;;;;;9.55;5.28;;;;;;;;;;5070754;28;20028;-55
2022/03/26 09:54:43;;;;;;;8.20;4.47;;;;;;;;;;5091459;27;20020;-53
2022/03/26 09:57:09;;;;;;;10.35;5.70;;;;;;;;;;5090613;28;20024;-55
2022/03/26 09:59:38;;;;;;;12.68;5.75;;;;;;;;;;5089159;28;20024;-55
2022/03/26 10:02:04;;;;;;;8.52;4.90;;;;;;;;;;5087630;28;20145;-55
2022/03/26 10:04:41;;;;;;;10.18;5.50;;;;;;;;;;5089237;28;20024;-54
2022/03/26 10:07:07;;;;;;;12.68;6.13;;;;;;;;;;5089770;28;20020;-54
2022/03/26 10:09:37;;;;;;;14.20;7.72;;;;;;;;;;5084816;28;20032;-55
2022/03/26 10:12:03;;;;;;;17.50;9.63;;;;;;;;;;5084460;28;20031;-55
2022/03/26 10:14:53;;;;;;;12.77;5.70;;;;;;;;;;5085055;28;20380;-56
2022/03/26 10:17:19;;;;;;;;;;;;;;;;;;5083967;28;20016;-59
2022/03/26 10:19:49;;;;;;;9.80;5.75;;;;;;;;;;5083762;27;20398;-57
2022/03/26 10:22:24;;;;;;;22.88;12.57;;;;;;;;;;5083674;28;20019;-56
2022/03/26 10:24:51;;;;;;;15.82;8.95;;;;;;;;;;5087744;28;20041;-56
2022/03/26 10:27:18;;;;;;;9.02;4.43;;;;;;;;;;5083469;27;20434;-56
2022/03/26 10:29:57;;;;;;;12.10;7.72;;;;;;;;;;5084244;28;20028;-55
2022/03/26 10:33:01;;;;;;;11.68;5.07;;;;;;;;;;5083411;27;20028;-56
2022/03/26 10:35:24;;;;;;;99.43;54.42;;;;;;;;;;5080931;28;20032;-54
2022/03/26 10:37:59;;;;;;;13.45;8.23;;;;;;;;;;5082748;27;20114;-53
2022/03/26 10:40:33;;;;;;;12.10;4.45;;;;;;;;;;5083363;27;20104;-55
2022/03/26 10:43:03;;;;;;;7.43;4.07;;;;;;;;;;5083073;28;20113;-54
2022/03/26 10:45:30;;;;;;;12.90;7.40;;;;;;;;;;5083150;28;20032;-57
2022/03/26 10:47:57;;;;;;;9.75;5.68;;;;;;;;;;5083288;28;20032;-54
2022/03/26 10:50:23;;;;;;;11.25;4.95;;;;;;;;;;5084424;28;20039;-54
2022/03/26 10:52:55;;;;;;;10.07;4.80;;;;;;;;;;5083168;28;20028;-55
2022/03/26 10:55:21;;;;;;;6.78;3.80;;;;;;;;;;5083023;27;20032;-57
2022/03/26 10:57:48;;;;;;;10.90;3.70;;;;;;;;;;5084301;28;20028;-58
2022/03/26 11:00:15;;;;;;;14.50;8.52;;;;;;;;;;5083271;28;20472;-55
2022/03/26 11:02:41;;;;;;;10.38;6.22;;;;;;;;;;5082998;28;20024;-56
2022/03/26 11:05:08;;;;;;;11.50;6.85;;;;;;;;;;5083290;28;20016;-57
2022/03/26 11:07:36;;;;;;;9.00;4.68;;;;;;;;;;5083501;28;20020;-57
2022/03/26 11:10:04;;;;;;;11.48;7.05;;;;;;;;;;5082583;28;20606;-58
2022/03/26 11:12:31;;;;;;;15.32;6.30;;;;;;;;;;5063696;28;20032;-58
2022/03/26 11:15:00;;;;;;;16.75;8.85;;;;;;;;;;5082779;28;20039;-55
2022/03/26 11:17:26;;;;;;;8.40;4.43;;;;;;;;;;5082643;28;20514;-58
2022/03/26 11:20:11;;;;;;;14.75;8.15;;;;;;;;;;5083064;28;20803;-59
2022/03/26 11:22:43;;;;;;;8.00;4.78;;;;;;;;;;5082790;28;20024;-56
2022/03/26 11:25:16;;;;;;;8.02;5.10;;;;;;;;;;5085011;28;20070;-57
2022/03/26 11:28:07;;;;;;;17.85;7.03;;;;;;;;;;5083355;28;20016;-49
2022/03/26 11:30:35;;;;;;;19.17;12.25;;;;;;;;;;5084058;28;20036;-48
2022/03/26 11:33:15;;;;;;;12.45;6.07;;;;;;;;;;5127928;28;20129;-60
2022/03/26 11:36:00;;;;;;;7.35;3.78;;;;;;;;;;5133928;28;20034;-59
2022/03/26 11:38:28;;;;;;;9.43;3.42;;;;;;;;;;5133979;28;20019;-57
2022/03/26 11:40:58;;;;;;;11.18;4.88;;;;;;;;;;5134202;28;20090;-57
2022/03/26 11:43:43;;;;;;;58.00;28.90;;;;;;;;;;5115153;28;20038;-57
2022/03/26 11:52:18;;;;;;;10.45;5.38;;;;;;;;;;5031175;28;20036;-48
2022/03/26 11:54:45;;;;;;;7.78;3.47;;;;;;;;;;5030892;28;20041;-58
2022/03/26 11:57:16;;;;;;;8.50;3.70;;;;;;;;;;5031303;28;20547;-54
2022/03/26 11:59:43;;;;;;;7.57;2.80;;;;;;;;;;5030881;28;20041;-53
2022/03/26 12:02:16;;;;;;;4.05;2.40;;;;;;;;;;5030811;28;20025;-54
2022/03/26 12:04:49;;;;;;;7.00;3.63;;;;;;;;;;5030749;28;20041;-55
2022/03/26 12:07:15;;;;;;;8.98;4.68;;;;;;;;;;5030434;28;20440;-56
2022/03/26 12:09:44;;;;;;;7.38;4.28;;;;;;;;;;5030966;28;20401;-49
2022/03/26 12:12:10;;;;;;;11.15;5.80;;;;;;;;;;5030753;28;20017;-51
2022/03/26 12:14:54;;;;;;;9.75;5.43;;;;;;;;;;5030662;28;20600;-49
2022/03/26 12:17:39;;;;;;;11.85;6.13;;;;;;;;;;5030509;28;20072;-54
2022/03/26 12:20:17;;;;;;;7.30;3.67;;;;;;;;;;5071146;28;20042;-48
2022/03/26 12:22:43;;;;;;;8.35;4.32;;;;;;;;;;5113139;28;20023;-49
2022/03/26 12:25:11;;;;;;;6.75;4.50;;;;;;;;;;5113210;28;20099;-52
2022/03/26 12:27:40;;;;;;;6.35;3.40;;;;;;;;;;5113379;28;20031;-53
2022/03/26 12:30:06;;;;;;;4.82;3.15;;;;;;;;;;5117029;28;20530;-54
2022/03/26 12:32:33;;;;;;;4.55;2.65;;;;;;;;;;5116618;28;20028;-54
2022/03/26 12:35:04;;;;;;;6.03;3.30;;;;;;;;;;5116695;28;20479;-49
2022/03/26 12:37:33;;;;;;;5.90;3.08;;;;;;;;;;5116631;28;20050;-52
2022/03/26 12:39:59;;;;;;;4.72;2.72;;;;;;;;;;5098180;28;20433;-55
2022/03/26 12:42:26;;;;;;;5.88;3.33;;;;;;;;;;5116632;28;20024;-54
2022/03/26 12:44:53;;;;;;;12.60;3.55;;;;;;;;;;5116375;28;20019;-53
2022/03/26 12:47:23;;;;;;;7.25;3.47;;;;;;;;;;5116538;28;20441;-55
2022/03/26 12:49:50;;;;;;;13.03;3.63;;;;;;;;;;5116155;28;20055;-50
2022/03/26 12:52:20;;;;;;;9.90;3.80;;;;;;;;;;5116329;28;20256;-52
2022/03/26 12:55:12;;;;;;;5.30;2.80;;;;;;;;;;5116396;28;20032;-57
2022/03/26 13:00:27;;;;;;;12.45;6.57;;;;;;;;;;5116619;28;20038;-54
2022/03/26 13:03:20;;;;;;;7.68;3.45;;;;;;;;;;5116117;28;20019;-55
2022/03/26 13:05:46;;;;;;;5.93;4.25;;;;;;;;;;5103513;28;20039;-51
2022/03/26 13:08:12;;;;;;;8.48;3.67;;;;;;;;;;5109760;28;20545;-55
2022/03/26 13:10:41;;;;;;;7.72;3.33;;;;;;;;;;5095462;28;20060;-52
2022/03/26 13:13:07;;;;;;;7.18;2.97;;;;;;;;;;5095468;28;20044;-54
2022/03/26 13:15:33;;;;;;;7.75;2.85;;;;;;;;;;5095480;28;20536;-52
2022/03/26 13:18:01;;;;;;;7.50;3.15;;;;;;;;;;5095627;28;20107;-51
2022/03/26 13:20:29;;;;;;;10.48;6.13;;;;;;;;;;5095212;28;20028;-52
2022/03/26 13:23:00;;;;;;;19.40;12.15;;;;;;;;;;5095159;28;20027;-52
2022/03/26 13:25:31;;;;;;;41.90;25.48;;;;;;;;;;5076756;28;20032;-52
2022/03/26 13:28:12;;;;;;;25.02;15.55;;;;;;;;;;5095206;28;20063;-53
2022/03/26 13:30:38;;;;;;;16.58;10.35;;;;;;;;;;5095026;28;20396;-52
2022/03/26 13:33:12;;;;;;;10.63;5.32;;;;;;;;;;5095143;28;20058;-52
2022/03/26 13:35:38;;;;;;;8.48;3.60;;;;;;;;;;5076606;28;20032;-52
2022/03/26 13:38:11;;;;;;;5.78;3.28;;;;;;;;;;5095081;28;20081;-52
2022/03/26 13:40:37;;;;;;;15.65;4.15;;;;;;;;;;5094595;28;20027;-52
2022/03/26 13:43:10;;;;;;;12.80;4.43;;;;;;;;;;5094941;28;20030;-52
2022/03/26 13:45:37;;;;;;;11.75;3.47;;;;;;;;;;5093993;28;20028;-51
2022/03/26 13:48:04;;;;;;;6.22;3.03;;;;;;;;;;5094959;28;20016;-54
2022/03/26 13:50:30;;;;;;;11.70;3.83;;;;;;;;;;5080953;28;20110;-53
2022/03/26 13:52:56;;;;;;;7.43;3.35;;;;;;;;;;5095868;28;20111;-52
2022/03/26 13:55:24;;;;;;;4.60;2.55;;;;;;;;;;5093726;28;20016;-51
2022/03/26 13:57:50;;;;;;;11.88;3.70;;;;;;;;;;5094523;28;20094;-52
2022/03/26 14:00:17;;;;;;;8.57;4.38;;;;;;;;;;5094021;28;20520;-50
2022/03/26 14:02:43;;;;;;;12.52;5.15;;;;;;;;;;5075961;28;20039;-53
2022/03/26 14:05:25;;;;;;;11.32;5.30;;;;;;;;;;5094440;28;20081;-57
2022/03/26 14:07:52;;;;;;;8.48;4.40;;;;;;;;;;5093702;28;20016;-48
2022/03/26 14:10:18;;;;;;;6.28;4.20;;;;;;;;;;5065250;28;20520;-55
2022/03/26 14:12:44;;;;;;;10.95;3.65;;;;;;;;;;5063508;28;20539;-49
2022/03/26 14:15:10;;;;;;;5.97;4.13;;;;;;;;;;5063018;28;20081;-50
2022/03/26 14:17:36;;;;;;;10.00;3.92;;;;;;;;;;5064191;28;20107;-50
2022/03/26 14:20:03;;;;;;;6.43;3.25;;;;;;;;;;5064008;28;20032;-50
2022/03/26 14:22:29;;;;;;;5.22;3.08;;;;;;;;;;5063373;28;20016;-50
2022/03/26 14:24:55;;;;;;;7.70;4.50;;;;;;;;;;5063306;28;20029;-49
2022/03/26 14:27:21;;;;;;;7.38;4.40;;;;;;;;;;5063287;28;20468;-53
2022/03/26 14:29:47;;;;;;;18.55;7.13;;;;;;;;;;5063115;28;20044;-48
2022/03/26 14:32:13;;;;;;;17.60;11.32;;;;;;;;;;5063871;28;20424;-52
2022/03/26 14:34:42;;;;;;;9.65;5.97;;;;;;;;;;5112852;28;20379;-52